Terminal Aerodrome Forecast
Issued by NWS Spokane, WA

Home | Current Version | Previous Version | Text Only | Print | Product List | Glossary On
Versions: 1 2 3 4 5 6 7 8 9 10 11 12 13 14 15 16 17 18 19 20
000
FTUS46 KOTX 231731
TAFLWS
TAF
KLWS 231731Z 2318/2418 07006KT P6SM VCSH OVC080 WS020/22025KT
     FM232100 23012G25KT P6SM -TSRA SCT030 BKN040CB OVC060
     FM240200 24005KT P6SM VCSH BKN060 BKN100
     FM240600 25004KT P6SM BKN040 OVC070=

USA.gov is the U.S. government's official web portal to all federal, state and local government web resources and services.